Time;durP1;ratioP1;P1;durP2;ratioP2;P2;SDS_P1;SDS_P2;PMS_P1;PMS_P2;Temp;Humidity;BMP_temperature;BMP_pressure;BME280_temperature;BME280_humidity;BME280_pressure;Samples;Min_cycle;Max_cycle;Signal;HPM_P1;HPM_P2
2021/04/12 00:00:30;;;;;;;0.20;0.20;;;;;;;;;;5044235;28;20227;-68
2021/04/12 00:02:57;;;;;;;0.20;0.20;;;;;;;;;;5045151;28;20202;-68
2021/04/12 00:05:31;;;;;;;0.20;0.20;;;;;;;;;;5044765;28;20488;-68
2021/04/12 00:08:00;;;;;;;0.20;0.20;;;;;;;;;;5044956;28;20207;-68
2021/04/12 00:10:28;;;;;;;0.20;0.20;;;;;;;;;;5044721;28;20209;-69
2021/04/12 00:12:56;;;;;;;0.20;0.20;;;;;;;;;;5044578;28;20208;-69
2021/04/12 00:15:26;;;;;;;0.20;0.20;;;;;;;;;;5044694;28;20388;-69
2021/04/12 00:17:54;;;;;;;0.20;0.20;;;;;;;;;;5036800;28;20216;-69
2021/04/12 00:20:24;;;;;;;0.20;0.20;;;;;;;;;;5037160;28;20230;-67
2021/04/12 00:22:51;;;;;;;0.20;0.20;;;;;;;;;;5043619;28;20249;-69
2021/04/12 00:25:19;;;;;;;0.20;0.20;;;;;;;;;;5041150;28;20213;-69
2021/04/12 00:27:47;;;;;;;0.20;0.20;;;;;;;;;;5044371;28;20212;-68
2021/04/12 00:30:16;;;;;;;0.20;0.20;;;;;;;;;;5044588;28;20314;-68
2021/04/12 00:32:45;;;;;;;0.20;0.20;;;;;;;;;;5044232;28;20412;-69
2021/04/12 00:35:14;;;;;;;0.20;0.20;;;;;;;;;;5044428;28;20212;-68
2021/04/12 00:37:43;;;;;;;0.20;0.20;;;;;;;;;;5044573;28;20222;-70
2021/04/12 00:40:13;;;;;;;0.20;0.20;;;;;;;;;;5036438;28;20231;-67
2021/04/12 00:42:51;;;;;;;0.20;0.20;;;;;;;;;;5041338;28;20247;-71
2021/04/12 00:45:32;;;;;;;0.20;0.20;;;;;;;;;;5040721;28;20310;-68
2021/04/12 00:48:05;;;;;;;0.20;0.20;;;;;;;;;;5029321;28;20234;-68
2021/04/12 00:50:36;;;;;;;0.20;0.20;;;;;;;;;;5044257;28;20197;-70
2021/04/12 00:53:21;;;;;;;0.20;0.20;;;;;;;;;;5044776;28;20200;-69
2021/04/12 00:55:49;;;;;;;0.20;0.20;;;;;;;;;;5043375;28;20228;-68
2021/04/12 00:58:19;;;;;;;0.20;0.20;;;;;;;;;;5044126;28;20224;-67
2021/04/12 01:00:47;;;;;;;0.20;0.20;;;;;;;;;;5038203;28;20376;-69
2021/04/12 01:03:37;;;;;;;0.20;0.20;;;;;;;;;;5036200;28;20209;-69
2021/04/12 01:06:08;;;;;;;0.20;0.20;;;;;;;;;;5023243;28;20267;-69
2021/04/12 01:08:46;;;;;;;0.20;0.20;;;;;;;;;;5043771;28;20211;-67
2021/04/12 01:11:31;;;;;;;0.20;0.20;;;;;;;;;;5035891;28;20208;-68
2021/04/12 01:14:06;;;;;;;0.20;0.20;;;;;;;;;;5038262;28;20228;-68
2021/04/12 01:16:36;;;;;;;0.20;0.20;;;;;;;;;;5035526;28;20246;-69
2021/04/12 01:19:36;;;;;;;0.20;0.20;;;;;;;;;;5042896;28;20401;-68
2021/04/12 01:22:26;;;;;;;0.20;0.20;;;;;;;;;;5041361;28;20193;-67
2021/04/12 01:25:10;;;;;;;0.20;0.20;;;;;;;;;;5043810;28;20280;-67
2021/04/12 01:27:54;;;;;;;0.20;0.20;;;;;;;;;;5043814;28;20492;-68
2021/04/12 01:30:35;;;;;;;0.20;0.20;;;;;;;;;;5032429;28;20201;-67
2021/04/12 01:33:22;;;;;;;0.20;0.20;;;;;;;;;;5040119;28;20207;-68
2021/04/12 01:36:06;;;;;;;0.20;0.20;;;;;;;;;;5043749;28;20200;-69
2021/04/12 01:38:36;;;;;;;0.27;0.27;;;;;;;;;;5038278;28;20486;-68
2021/04/12 01:41:08;;;;;;;0.20;0.20;;;;;;;;;;5032758;28;20229;-69
2021/04/12 01:43:38;;;;;;;0.20;0.20;;;;;;;;;;5037858;28;20480;-68
2021/04/12 01:46:06;;;;;;;0.20;0.20;;;;;;;;;;5043086;28;20212;-68
2021/04/12 01:48:39;;;;;;;0.20;0.20;;;;;;;;;;5043722;28;20201;-68
2021/04/12 01:51:18;;;;;;;0.20;0.20;;;;;;;;;;5043153;28;20272;-68
2021/04/12 01:54:00;;;;;;;0.20;0.20;;;;;;;;;;5042856;28;20208;-68
2021/04/12 01:56:35;;;;;;;0.20;0.20;;;;;;;;;;5036667;28;20201;-69
2021/04/12 01:59:10;;;;;;;0.20;0.20;;;;;;;;;;5040352;28;20220;-68
2021/04/12 02:01:44;;;;;;;0.20;0.20;;;;;;;;;;5033040;28;20227;-67
2021/04/12 02:04:15;;;;;;;0.20;0.20;;;;;;;;;;5040230;28;20413;-68
2021/04/12 02:06:51;;;;;;;0.20;0.20;;;;;;;;;;5037793;28;20204;-67
2021/04/12 02:09:27;;;;;;;0.20;0.20;;;;;;;;;;5037503;28;20196;-68
2021/04/12 02:11:55;;;;;;;0.20;0.20;;;;;;;;;;5032280;28;20211;-68
2021/04/12 02:14:33;;;;;;;0.20;0.20;;;;;;;;;;5037156;28;20268;-68
2021/04/12 02:17:02;;;;;;;0.20;0.20;;;;;;;;;;5038931;28;20224;-68
2021/04/12 02:19:34;;;;;;;0.20;0.20;;;;;;;;;;5037568;28;20473;-68
2021/04/12 02:22:16;;;;;;;0.20;0.20;;;;;;;;;;5042269;28;20200;-67
2021/04/12 02:24:45;;;;;;;0.20;0.20;;;;;;;;;;5041963;28;20238;-68
2021/04/12 02:27:14;;;;;;;0.20;0.20;;;;;;;;;;5043172;28;20522;-69
2021/04/12 02:29:46;;;;;;;0.20;0.20;;;;;;;;;;5043159;28;20314;-68
2021/04/12 02:32:18;;;;;;;0.20;0.20;;;;;;;;;;5043396;28;20495;-68
2021/04/12 02:34:45;;;;;;;0.20;0.20;;;;;;;;;;5042748;28;20242;-70
2021/04/12 02:37:27;;;;;;;0.20;0.20;;;;;;;;;;5032214;28;20275;-68
2021/04/12 02:40:01;;;;;;;0.20;0.20;;;;;;;;;;5042849;28;20216;-69
2021/04/12 02:42:34;;;;;;;0.20;0.20;;;;;;;;;;5044690;28;20196;-68
2021/04/12 02:45:04;;;;;;;0.20;0.20;;;;;;;;;;5036208;28;20216;-67
2021/04/12 02:47:37;;;;;;;0.20;0.20;;;;;;;;;;5038723;28;20278;-67
2021/04/12 02:50:09;;;;;;;0.20;0.20;;;;;;;;;;5040064;28;20193;-68
2021/04/12 02:52:42;;;;;;;0.20;0.20;;;;;;;;;;5046375;28;20377;-68
2021/04/12 02:55:31;;;;;;;0.20;0.20;;;;;;;;;;5046343;28;20236;-67
2021/04/12 02:58:14;;;;;;;0.20;0.20;;;;;;;;;;5040393;28;20315;-68
2021/04/12 03:00:48;;;;;;;0.20;0.20;;;;;;;;;;5041826;28;20224;-70
2021/04/12 03:03:34;;;;;;;0.20;0.20;;;;;;;;;;5042161;28;20364;-68
2021/04/12 03:06:17;;;;;;;0.20;0.20;;;;;;;;;;5046040;28;20496;-69
2021/04/12 03:08:50;;;;;;;0.20;0.20;;;;;;;;;;5046275;28;20390;-69
2021/04/12 03:11:30;;;;;;;0.20;0.20;;;;;;;;;;5046393;28;20480;-68
2021/04/12 03:14:10;;;;;;;0.20;0.20;;;;;;;;;;5035107;28;20200;-68
2021/04/12 03:16:43;;;;;;;0.20;0.20;;;;;;;;;;5045955;28;20208;-68
2021/04/12 03:19:24;;;;;;;0.20;0.20;;;;;;;;;;5036333;28;20510;-69
2021/04/12 03:22:07;;;;;;;0.30;0.30;;;;;;;;;;5032843;28;20232;-68
2021/04/12 03:24:37;;;;;;;0.20;0.20;;;;;;;;;;5042007;28;20358;-68
2021/04/12 03:27:21;;;;;;;0.20;0.20;;;;;;;;;;5045907;28;20208;-68
2021/04/12 03:29:55;;;;;;;0.20;0.20;;;;;;;;;;5042083;28;20379;-67
2021/04/12 03:32:33;;;;;;;0.20;0.20;;;;;;;;;;5033597;28;20276;-67
2021/04/12 03:35:02;;;;;;;0.20;0.20;;;;;;;;;;5033221;28;20388;-67
2021/04/12 03:37:48;;;;;;;0.20;0.20;;;;;;;;;;5045583;28;20247;-68
2021/04/12 03:40:20;;;;;;;0.20;0.20;;;;;;;;;;5019156;28;20227;-68
2021/04/12 03:42:56;;;;;;;0.20;0.20;;;;;;;;;;5042645;28;20424;-67
2021/04/12 03:45:44;;;;;;;0.20;0.20;;;;;;;;;;5037021;28;20209;-67
2021/04/12 03:48:34;;;;;;;0.20;0.20;;;;;;;;;;5039341;28;20201;-69
2021/04/12 03:51:13;;;;;;;0.20;0.20;;;;;;;;;;5044602;28;20204;-69
2021/04/12 03:53:46;;;;;;;0.20;0.20;;;;;;;;;;5039505;28;20201;-69
2021/04/12 03:56:19;;;;;;;0.20;0.20;;;;;;;;;;5044942;28;20211;-68
2021/04/12 03:58:52;;;;;;;0.20;0.20;;;;;;;;;;5041500;28;20224;-68
2021/04/12 04:01:27;;;;;;;0.20;0.20;;;;;;;;;;5044752;28;20400;-68
2021/04/12 04:04:08;;;;;;;0.20;0.20;;;;;;;;;;5032423;28;20495;-69
2021/04/12 04:06:46;;;;;;;0.20;0.20;;;;;;;;;;5044803;28;20246;-69
2021/04/12 04:09:17;;;;;;;0.20;0.20;;;;;;;;;;5044883;28;20200;-69
2021/04/12 04:11:58;;;;;;;0.20;0.20;;;;;;;;;;5044554;28;20208;-68
2021/04/12 04:14:42;;;;;;;0.20;0.20;;;;;;;;;;5035506;28;20205;-68
2021/04/12 04:17:15;;;;;;;0.20;0.20;;;;;;;;;;5043006;28;20526;-69
2021/04/12 04:19:47;;;;;;;0.20;0.20;;;;;;;;;;5034809;28;20478;-68
2021/04/12 04:22:30;;;;;;;0.20;0.20;;;;;;;;;;5044533;28;20224;-69
2021/04/12 04:25:14;;;;;;;0.20;0.20;;;;;;;;;;5040785;28;20258;-68
2021/04/12 04:27:48;;;;;;;0.20;0.20;;;;;;;;;;5044478;28;20223;-69
2021/04/12 04:30:34;;;;;;;0.20;0.20;;;;;;;;;;5042950;28;20207;-67
2021/04/12 04:33:13;;;;;;;0.20;0.20;;;;;;;;;;5015115;28;20205;-67
2021/04/12 04:35:49;;;;;;;0.20;0.20;;;;;;;;;;5037027;28;20200;-68
2021/04/12 04:38:27;;;;;;;0.20;0.20;;;;;;;;;;5032747;28;20242;-69
2021/04/12 04:40:57;;;;;;;0.20;0.20;;;;;;;;;;5043920;28;20216;-70
2021/04/12 04:43:30;;;;;;;0.20;0.20;;;;;;;;;;5031483;28;20201;-69
2021/04/12 04:46:04;;;;;;;0.20;0.20;;;;;;;;;;5040686;28;20212;-70
2021/04/12 04:48:38;;;;;;;0.20;0.20;;;;;;;;;;5036208;28;20367;-69
2021/04/12 04:51:12;;;;;;;0.20;0.20;;;;;;;;;;5042453;28;20388;-68
2021/04/12 04:53:56;;;;;;;0.20;0.20;;;;;;;;;;5031105;28;20193;-68
2021/04/12 04:56:23;;;;;;;0.20;0.20;;;;;;;;;;5013636;28;20212;-69
2021/04/12 04:58:59;;;;;;;0.20;0.20;;;;;;;;;;5040250;28;20247;-67
2021/04/12 05:01:37;;;;;;;0.20;0.20;;;;;;;;;;5044333;28;20222;-68
2021/04/12 05:04:27;;;;;;;0.20;0.20;;;;;;;;;;5043505;28;20211;-68
2021/04/12 05:07:23;;;;;;;0.20;0.20;;;;;;;;;;5027384;28;20204;-68
2021/04/12 05:09:54;;;;;;;0.20;0.20;;;;;;;;;;5043871;28;20201;-67
2021/04/12 05:12:30;;;;;;;0.20;0.20;;;;;;;;;;5031519;28;20489;-68
2021/04/12 05:15:09;;;;;;;0.20;0.20;;;;;;;;;;5042467;28;20538;-68
2021/04/12 05:17:53;;;;;;;0.20;0.20;;;;;;;;;;5034637;28;20262;-68
2021/04/12 05:20:23;;;;;;;0.20;0.20;;;;;;;;;;5043686;28;20236;-68
2021/04/12 05:23:00;;;;;;;0.20;0.20;;;;;;;;;;5043586;28;20247;-69
2021/04/12 05:25:42;;;;;;;0.20;0.20;;;;;;;;;;5043669;28;20200;-68
2021/04/12 05:28:14;;;;;;;0.20;0.20;;;;;;;;;;5041401;28;20423;-68
2021/04/12 05:30:55;;;;;;;0.20;0.20;;;;;;;;;;5043808;28;20360;-68
2021/04/12 05:33:25;;;;;;;0.20;0.20;;;;;;;;;;5040970;28;20200;-68
2021/04/12 05:36:06;;;;;;;0.20;0.20;;;;;;;;;;5043847;28;20356;-69
2021/04/12 05:38:48;;;;;;;0.20;0.20;;;;;;;;;;5043547;28;20376;-68
2021/04/12 05:41:27;;;;;;;0.20;0.20;;;;;;;;;;5043288;28;20279;-68
2021/04/12 05:44:02;;;;;;;0.20;0.20;;;;;;;;;;5043178;28;20213;-67
2021/04/12 05:46:45;;;;;;;0.20;0.20;;;;;;;;;;5043736;28;20214;-68
2021/04/12 05:49:37;;;;;;;0.20;0.20;;;;;;;;;;5030493;28;20205;-69
2021/04/12 05:52:16;;;;;;;0.20;0.20;;;;;;;;;;5037555;28;20207;-69
2021/04/12 05:54:51;;;;;;;0.10;0.10;;;;;;;;;;5043590;28;20204;-68
2021/04/12 05:57:25;;;;;;;0.20;0.20;;;;;;;;;;5043695;28;20200;-68
2021/04/12 06:00:01;;;;;;;0.20;0.20;;;;;;;;;;5043561;28;20231;-69
2021/04/12 06:02:36;;;;;;;0.20;0.20;;;;;;;;;;5040293;28;20212;-69
2021/04/12 06:05:05;;;;;;;0.20;0.20;;;;;;;;;;5033563;28;20201;-69
2021/04/12 06:07:55;;;;;;;0.20;0.20;;;;;;;;;;5037464;28;20202;-69
2021/04/12 06:10:31;;;;;;;0.20;0.20;;;;;;;;;;5039343;28;20194;-69
2021/04/12 06:13:20;;;;;;;0.20;0.20;;;;;;;;;;5035517;28;20209;-68
2021/04/12 06:15:52;;;;;;;0.20;0.20;;;;;;;;;;5018268;28;20220;-67
2021/04/12 06:18:33;;;;;;;0.20;0.20;;;;;;;;;;5045552;28;20216;-68
2021/04/12 06:21:11;;;;;;;0.20;0.20;;;;;;;;;;5042243;28;20212;-67
2021/04/12 06:23:53;;;;;;;0.20;0.20;;;;;;;;;;5042104;28;20463;-69
2021/04/12 06:26:43;;;;;;;0.20;0.20;;;;;;;;;;5043162;28;20212;-68
2021/04/12 06:29:15;;;;;;;0.20;0.20;;;;;;;;;;4988101;28;20207;-69
2021/04/12 06:32:00;;;;;;;0.20;0.20;;;;;;;;;;5034939;28;20393;-69
2021/04/12 06:34:38;;;;;;;0.20;0.20;;;;;;;;;;5039464;28;20259;-70
2021/04/12 06:37:12;;;;;;;0.20;0.20;;;;;;;;;;5038582;28;20197;-69
2021/04/12 06:40:16;;;;;;;0.20;0.20;;;;;;;;;;5033160;28;20198;-69
2021/04/12 06:43:00;;;;;;;0.20;0.20;;;;;;;;;;5037724;28;20207;-69
2021/04/12 06:46:01;;;;;;;0.20;0.20;;;;;;;;;;5037799;28;20220;-70
2021/04/12 06:48:42;;;;;;;0.20;0.20;;;;;;;;;;5038270;28;20201;-69
2021/04/12 06:51:26;;;;;;;0.20;0.20;;;;;;;;;;5039971;28;20492;-69
2021/04/12 06:54:12;;;;;;;0.20;0.20;;;;;;;;;;5038404;28;20357;-69
2021/04/12 06:56:57;;;;;;;0.20;0.20;;;;;;;;;;5042365;28;20197;-69
2021/04/12 06:59:40;;;;;;;0.20;0.20;;;;;;;;;;5028449;28;20233;-68
2021/04/12 07:02:33;;;;;;;0.20;0.20;;;;;;;;;;5042149;28;20219;-68
2021/04/12 07:05:20;;;;;;;0.20;0.20;;;;;;;;;;5012284;28;20205;-69
2021/04/12 07:08:05;;;;;;;0.20;0.20;;;;;;;;;;5039034;28;20247;-69
2021/04/12 07:10:48;;;;;;;0.20;0.20;;;;;;;;;;5035607;28;20267;-68
2021/04/12 07:13:24;;;;;;;0.20;0.20;;;;;;;;;;5034966;28;20552;-67
2021/04/12 07:16:09;;;;;;;0.20;0.20;;;;;;;;;;5037773;28;20242;-68
2021/04/12 07:18:52;;;;;;;0.20;0.20;;;;;;;;;;5038397;28;20212;-69
2021/04/12 07:21:45;;;;;;;0.20;0.20;;;;;;;;;;5040069;28;20413;-68
2021/04/12 07:24:30;;;;;;;0.20;0.20;;;;;;;;;;5041783;28;20426;-68
2021/04/12 07:27:11;;;;;;;0.20;0.20;;;;;;;;;;5036797;28;20385;-67
2021/04/12 07:29:51;;;;;;;0.20;0.20;;;;;;;;;;5043978;28;20197;-69
2021/04/12 07:32:47;;;;;;;0.20;0.20;;;;;;;;;;5036366;28;20500;-69
2021/04/12 07:35:36;;;;;;;0.20;0.20;;;;;;;;;;4993761;28;20207;-69
2021/04/12 07:38:17;;;;;;;0.20;0.20;;;;;;;;;;5042125;28;20209;-69
2021/04/12 07:41:06;;;;;;;0.20;0.20;;;;;;;;;;5045708;28;20216;-68
2021/04/12 07:43:56;;;;;;;0.20;0.20;;;;;;;;;;5027967;28;20568;-69
2021/04/12 07:46:34;;;;;;;0.20;0.20;;;;;;;;;;5028538;28;20503;-68
2021/04/12 07:49:33;;;;;;;0.20;0.20;;;;;;;;;;5035253;28;20205;-68
2021/04/12 07:52:19;;;;;;;0.20;0.20;;;;;;;;;;5038404;28;20208;-68
2021/04/12 07:55:10;;;;;;;0.20;0.20;;;;;;;;;;5042946;28;20205;-68
2021/04/12 07:57:54;;;;;;;0.10;0.10;;;;;;;;;;5027371;28;20261;-68
2021/04/12 08:00:32;;;;;;;0.20;0.20;;;;;;;;;;5029984;28;20437;-68
2021/04/12 08:03:16;;;;;;;0.20;0.20;;;;;;;;;;5045229;28;20291;-67
2021/04/12 08:05:56;;;;;;;0.20;0.20;;;;;;;;;;5044957;28;20239;-68
2021/04/12 08:08:33;;;;;;;0.20;0.20;;;;;;;;;;5043762;28;20204;-69
2021/04/12 08:11:17;;;;;;;0.20;0.20;;;;;;;;;;5042485;28;20385;-66
2021/04/12 08:14:02;;;;;;;0.20;0.20;;;;;;;;;;5041894;28;20209;-68
2021/04/12 08:16:53;;;;;;;0.10;0.10;;;;;;;;;;5045623;28;20213;-67
2021/04/12 08:19:34;;;;;;;0.10;0.10;;;;;;;;;;5044235;28;20346;-67
2021/04/12 08:22:19;;;;;;;0.20;0.20;;;;;;;;;;5042794;28;20240;-68
2021/04/12 08:24:52;;;;;;;0.20;0.20;;;;;;;;;;5044561;28;20276;-67
2021/04/12 08:27:32;;;;;;;0.17;0.17;;;;;;;;;;5044764;28;20224;-67
2021/04/12 08:30:15;;;;;;;0.20;0.20;;;;;;;;;;5034451;28;20310;-68
2021/04/12 08:32:59;;;;;;;0.20;0.20;;;;;;;;;;5042800;28;20202;-68
2021/04/12 08:35:48;;;;;;;0.20;0.20;;;;;;;;;;5027269;28;20206;-68
2021/04/12 08:38:41;;;;;;;0.10;0.10;;;;;;;;;;5032678;28;20392;-67
2021/04/12 08:41:24;;;;;;;0.20;0.20;;;;;;;;;;5009222;28;20242;-68
2021/04/12 08:44:13;;;;;;;0.20;0.20;;;;;;;;;;5043486;28;20203;-69
2021/04/12 08:46:57;;;;;;;0.20;0.20;;;;;;;;;;5044269;28;20202;-68
2021/04/12 08:49:44;;;;;;;0.20;0.20;;;;;;;;;;5036936;28;20208;-68
2021/04/12 08:52:32;;;;;;;0.20;0.20;;;;;;;;;;5042532;28;20237;-68
2021/04/12 08:55:13;;;;;;;0.20;0.20;;;;;;;;;;5042146;28;20210;-69
2021/04/12 08:57:50;;;;;;;0.20;0.20;;;;;;;;;;5015523;28;20221;-70
2021/04/12 09:00:35;;;;;;;0.40;0.40;;;;;;;;;;5037439;28;20199;-69
2021/04/12 09:03:16;;;;;;;0.20;0.20;;;;;;;;;;5041348;28;20773;-71
2021/04/12 09:05:56;;;;;;;0.20;0.20;;;;;;;;;;5040102;28;20538;-68
2021/04/12 09:08:40;;;;;;;0.20;0.20;;;;;;;;;;5039308;28;20517;-68
2021/04/12 09:11:16;;;;;;;0.20;0.20;;;;;;;;;;5038214;28;20229;-68
2021/04/12 09:13:55;;;;;;;0.20;0.20;;;;;;;;;;5037617;28;20424;-69
2021/04/12 09:16:28;;;;;;;0.20;0.20;;;;;;;;;;5037855;28;20199;-71
2021/04/12 09:19:16;;;;;;;0.20;0.20;;;;;;;;;;5043683;28;20219;-69
2021/04/12 09:21:57;;;;;;;0.20;0.20;;;;;;;;;;5041717;28;20223;-69
2021/04/12 09:24:34;;;;;;;0.10;0.10;;;;;;;;;;5037118;28;20202;-69
2021/04/12 09:27:17;;;;;;;0.10;0.10;;;;;;;;;;5035607;28;20203;-68
2021/04/12 09:30:14;;;;;;;0.10;0.10;;;;;;;;;;5043620;28;20198;-68
2021/04/12 09:32:59;;;;;;;0.20;0.20;;;;;;;;;;5031264;28;20232;-69
2021/04/12 09:35:40;;;;;;;0.10;0.10;;;;;;;;;;5034705;28;20198;-68
2021/04/12 09:38:30;;;;;;;0.20;0.20;;;;;;;;;;5042168;28;20276;-68
2021/04/12 09:41:11;;;;;;;0.10;0.10;;;;;;;;;;5031324;28;20279;-69
2021/04/12 09:43:55;;;;;;;0.20;0.20;;;;;;;;;;5035979;28;20238;-68
2021/04/12 09:46:40;;;;;;;0.10;0.10;;;;;;;;;;5035598;28;20207;-69
2021/04/12 09:49:19;;;;;;;0.20;0.20;;;;;;;;;;5041452;28;20214;-69
2021/04/12 09:52:07;;;;;;;0.10;0.10;;;;;;;;;;5045021;28;20242;-69
2021/04/12 09:55:01;;;;;;;0.13;0.13;;;;;;;;;;5037028;28;20206;-68
2021/04/12 09:57:44;;;;;;;0.10;0.10;;;;;;;;;;5045051;28;20218;-69
2021/04/12 10:00:19;;;;;;;0.20;0.20;;;;;;;;;;5045644;28;20203;-69
2021/04/12 10:03:00;;;;;;;0.10;0.10;;;;;;;;;;5036189;28;20200;-69
2021/04/12 10:05:56;;;;;;;0.10;0.10;;;;;;;;;;5031824;28;20210;-68
2021/04/12 10:08:28;;;;;;;0.17;0.17;;;;;;;;;;4982778;28;20209;-68
2021/04/12 10:10:59;;;;;;;0.10;0.10;;;;;;;;;;5031230;28;20279;-68
2021/04/12 10:13:35;;;;;;;0.10;0.10;;;;;;;;;;5044138;28;20212;-69
2021/04/12 10:16:08;;;;;;;0.10;0.10;;;;;;;;;;5047186;28;20210;-68
2021/04/12 10:18:41;;;;;;;0.10;0.10;;;;;;;;;;5039095;28;20242;-68
2021/04/12 10:21:14;;;;;;;0.10;0.10;;;;;;;;;;5047031;28;20228;-68
2021/04/12 10:23:41;;;;;;;0.10;0.10;;;;;;;;;;5046299;28;20248;-68
2021/04/12 10:26:11;;;;;;;0.10;0.10;;;;;;;;;;5036303;28;20204;-69
2021/04/12 10:28:44;;;;;;;0.10;0.10;;;;;;;;;;5043639;28;20247;-69
2021/04/12 10:31:14;;;;;;;0.20;0.20;;;;;;;;;;5044231;28;20272;-69
2021/04/12 10:33:41;;;;;;;0.10;0.10;;;;;;;;;;5027246;28;20239;-68
2021/04/12 10:36:10;;;;;;;0.20;0.20;;;;;;;;;;5044487;28;20212;-67
2021/04/12 10:38:37;;;;;;;0.10;0.10;;;;;;;;;;5037395;28;20208;-67
2021/04/12 10:41:10;;;;;;;0.20;0.20;;;;;;;;;;5046645;28;20235;-67
2021/04/12 10:43:42;;;;;;;0.10;0.10;;;;;;;;;;5045056;28;20293;-69
2021/04/12 10:46:11;;;;;;;0.10;0.10;;;;;;;;;;5046658;28;20204;-69
2021/04/12 10:48:43;;;;;;;0.20;0.20;;;;;;;;;;5046911;28;20204;-68
2021/04/12 10:51:24;;;;;;;0.10;0.10;;;;;;;;;;5039083;28;20199;-68
2021/04/12 10:54:09;;;;;;;0.10;0.10;;;;;;;;;;5046950;28;20217;-69
2021/04/12 10:56:37;;;;;;;0.10;0.10;;;;;;;;;;5046753;28;20381;-69
2021/04/12 10:59:21;;;;;;;0.20;0.20;;;;;;;;;;5036214;28;20212;-68
2021/04/12 11:01:50;;;;;;;0.10;0.10;;;;;;;;;;5045908;28;20538;-68
2021/04/12 11:04:28;;;;;;;0.20;0.20;;;;;;;;;;5045578;28;20207;-69
2021/04/12 11:07:04;;;;;;;0.20;0.20;;;;;;;;;;5040108;28;20199;-69
2021/04/12 11:09:33;;;;;;;0.20;0.20;;;;;;;;;;5046274;28;20208;-70
2021/04/12 11:12:06;;;;;;;0.20;0.20;;;;;;;;;;5046315;28;20203;-66
2021/04/12 11:14:33;;;;;;;0.20;0.20;;;;;;;;;;5046092;28;20386;-70
2021/04/12 11:17:01;;;;;;;1.07;1.07;;;;;;;;;;5045974;28;20291;-69
2021/04/12 11:19:31;;;;;;;0.20;0.20;;;;;;;;;;5046091;28;20195;-70
2021/04/12 11:22:05;;;;;;;0.20;0.20;;;;;;;;;;5045485;28;20227;-69
2021/04/12 11:24:33;;;;;;;0.27;0.27;;;;;;;;;;5027108;28;20526;-68
2021/04/12 11:27:18;;;;;;;0.20;0.20;;;;;;;;;;5037948;28;20204;-69
2021/04/12 11:29:53;;;;;;;0.10;0.10;;;;;;;;;;5038879;28;20203;-69
2021/04/12 11:32:29;;;;;;;0.20;0.20;;;;;;;;;;5040871;28;20203;-68
2021/04/12 11:34:57;;;;;;;0.20;0.20;;;;;;;;;;5035020;28;20305;-68
2021/04/12 11:37:25;;;;;;;0.20;0.20;;;;;;;;;;5044129;28;20213;-74
2021/04/12 11:39:54;;;;;;;0.17;0.17;;;;;;;;;;5046666;28;20208;-74
2021/04/12 11:42:20;;;;;;;0.10;0.10;;;;;;;;;;5046508;28;20524;-74
2021/04/12 11:44:49;;;;;;;0.10;0.10;;;;;;;;;;5046174;28;20204;-74
2021/04/12 11:47:24;;;;;;;0.10;0.10;;;;;;;;;;5042487;28;20212;-74
2021/04/12 11:50:14;;;;;;;0.20;0.20;;;;;;;;;;5042626;28;20273;-73
2021/04/12 11:52:47;;;;;;;0.20;0.20;;;;;;;;;;5023129;28;20222;-72
2021/04/12 11:55:16;;;;;;;0.20;0.20;;;;;;;;;;5039917;28;20200;-72
2021/04/12 11:57:46;;;;;;;0.20;0.20;;;;;;;;;;5046282;28;20208;-73
2021/04/12 12:00:14;;;;;;;0.20;0.20;;;;;;;;;;5042478;28;20504;-74
2021/04/12 12:02:43;;;;;;;0.17;0.17;;;;;;;;;;5046042;28;20255;-74
2021/04/12 12:05:13;;;;;;;0.20;0.20;;;;;;;;;;5042622;28;20204;-73
2021/04/12 12:07:42;;;;;;;0.20;0.20;;;;;;;;;;5028306;28;20211;-72
2021/04/12 12:10:14;;;;;;;0.10;0.10;;;;;;;;;;5029758;28;20446;-71
2021/04/12 12:12:46;;;;;;;0.20;0.20;;;;;;;;;;5036161;28;20208;-73
2021/04/12 12:15:20;;;;;;;0.10;0.10;;;;;;;;;;5041981;28;20487;-73
2021/04/12 12:17:47;;;;;;;0.10;0.10;;;;;;;;;;5045378;28;20406;-73
2021/04/12 12:20:18;;;;;;;0.20;0.20;;;;;;;;;;5042347;28;20278;-73
2021/04/12 12:22:49;;;;;;;0.10;0.10;;;;;;;;;;5045113;28;20437;-72
2021/04/12 12:25:20;;;;;;;0.10;0.10;;;;;;;;;;5032370;28;20428;-71
2021/04/12 12:27:56;;;;;;;0.10;0.10;;;;;;;;;;5037233;28;20385;-73
2021/04/12 12:30:28;;;;;;;0.10;0.10;;;;;;;;;;5042520;28;20200;-72
2021/04/12 12:33:02;;;;;;;0.13;0.13;;;;;;;;;;5029004;28;20558;-73
2021/04/12 12:35:33;;;;;;;0.10;0.10;;;;;;;;;;5039278;28;20250;-73
2021/04/12 12:38:20;;;;;;;0.17;0.17;;;;;;;;;;5045228;28;20204;-73
2021/04/12 12:40:48;;;;;;;0.20;0.20;;;;;;;;;;5042824;28;20225;-72
2021/04/12 12:43:15;;;;;;;0.20;0.20;;;;;;;;;;5042865;28;20231;-71
2021/04/12 12:45:42;;;;;;;0.10;0.10;;;;;;;;;;5044640;28;20196;-72
2021/04/12 12:48:13;;;;;;;0.13;0.13;;;;;;;;;;5041936;28;20519;-72
2021/04/12 12:50:44;;;;;;;0.10;0.10;;;;;;;;;;5040079;28;20290;-72
2021/04/12 12:53:12;;;;;;;0.10;0.10;;;;;;;;;;5043272;28;20279;-72
2021/04/12 12:55:43;;;;;;;0.10;0.10;;;;;;;;;;5040013;28;20201;-71
2021/04/12 12:58:10;;;;;;;0.10;0.10;;;;;;;;;;5044682;28;20269;-71
2021/04/12 13:00:38;;;;;;;0.20;0.20;;;;;;;;;;5040238;28;20204;-71
2021/04/12 13:03:16;;;;;;;0.10;0.10;;;;;;;;;;5038630;28;20302;-71
2021/04/12 13:05:43;;;;;;;0.10;0.10;;;;;;;;;;5044092;28;20224;-73
2021/04/12 13:08:10;;;;;;;0.10;0.10;;;;;;;;;;5044140;28;20391;-71
2021/04/12 13:10:37;;;;;;;0.10;0.10;;;;;;;;;;5044095;28;20466;-71
2021/04/12 13:13:14;;;;;;;0.10;0.10;;;;;;;;;;5039165;28;20212;-73
2021/04/12 13:15:40;;;;;;;0.10;0.10;;;;;;;;;;5042333;28;20239;-73
2021/04/12 13:18:10;;;;;;;0.10;0.10;;;;;;;;;;5039678;28;20220;-73
2021/04/12 13:20:39;;;;;;;0.10;0.10;;;;;;;;;;5038909;28;20212;-72
2021/04/12 13:23:06;;;;;;;0.10;0.10;;;;;;;;;;5043684;28;20308;-71
2021/04/12 13:25:35;;;;;;;0.13;0.13;;;;;;;;;;5042367;28;20212;-71
2021/04/12 13:28:04;;;;;;;0.10;0.10;;;;;;;;;;5043747;28;20212;-71
2021/04/12 13:30:32;;;;;;;0.20;0.20;;;;;;;;;;5041264;28;20208;-71
2021/04/12 13:33:00;;;;;;;0.20;0.20;;;;;;;;;;5024762;28;20211;-70
2021/04/12 13:35:28;;;;;;;0.20;0.20;;;;;;;;;;5034869;28;20487;-70
2021/04/12 13:38:01;;;;;;;0.20;0.20;;;;;;;;;;5041598;28;20219;-72
2021/04/12 13:40:28;;;;;;;0.10;0.10;;;;;;;;;;5037178;28;20271;-70
2021/04/12 13:42:55;;;;;;;0.13;0.13;;;;;;;;;;5040240;28;20211;-72
2021/04/12 13:45:26;;;;;;;0.10;0.10;;;;;;;;;;5043637;28;20215;-71
2021/04/12 13:47:54;;;;;;;0.20;0.20;;;;;;;;;;5043834;28;20272;-70
2021/04/12 13:50:21;;;;;;;0.10;0.10;;;;;;;;;;5036640;28;20235;-71
2021/04/12 13:52:49;;;;;;;0.10;0.10;;;;;;;;;;5030441;28;20355;-71
2021/04/12 13:55:19;;;;;;;0.20;0.20;;;;;;;;;;5043274;28;20204;-71
2021/04/12 13:57:46;;;;;;;0.10;0.10;;;;;;;;;;5035536;28;20212;-71
2021/04/12 14:00:18;;;;;;;0.17;0.17;;;;;;;;;;5037858;28;20387;-72
2021/04/12 14:02:49;;;;;;;0.10;0.10;;;;;;;;;;5043592;28;20224;-73
2021/04/12 14:05:19;;;;;;;0.20;0.20;;;;;;;;;;5040352;28;20197;-72
2021/04/12 14:07:46;;;;;;;0.20;0.20;;;;;;;;;;5043479;28;20231;-73
2021/04/12 14:10:14;;;;;;;0.10;0.10;;;;;;;;;;5040483;28;20204;-74
2021/04/12 14:12:50;;;;;;;0.10;0.10;;;;;;;;;;5039772;28;20267;-71
2021/04/12 14:15:22;;;;;;;0.10;0.10;;;;;;;;;;5043506;28;20208;-72
2021/04/12 14:17:55;;;;;;;0.10;0.10;;;;;;;;;;5035319;28;20221;-71
2021/04/12 14:20:27;;;;;;;0.13;0.13;;;;;;;;;;5035207;28;20478;-73
2021/04/12 14:22:54;;;;;;;0.20;0.20;;;;;;;;;;5033752;28;20547;-72
2021/04/12 14:25:25;;;;;;;0.10;0.10;;;;;;;;;;5043454;28;20236;-71
2021/04/12 14:27:53;;;;;;;0.20;0.20;;;;;;;;;;5034260;28;20235;-70
2021/04/12 14:30:21;;;;;;;0.10;0.10;;;;;;;;;;5044105;28;20213;-72
2021/04/12 14:32:48;;;;;;;0.10;0.10;;;;;;;;;;5043639;28;20219;-71
2021/04/12 14:35:26;;;;;;;0.10;0.10;;;;;;;;;;5037785;28;20289;-71
2021/04/12 14:37:52;;;;;;;0.10;0.10;;;;;;;;;;5037667;28;20454;-72
2021/04/12 14:40:21;;;;;;;0.13;0.13;;;;;;;;;;5037524;28;20263;-71
2021/04/12 14:42:50;;;;;;;0.10;0.10;;;;;;;;;;5042183;28;20227;-70
2021/04/12 14:45:20;;;;;;;0.20;0.20;;;;;;;;;;5040611;28;20432;-70
2021/04/12 14:47:48;;;;;;;0.10;0.10;;;;;;;;;;5041117;28;20204;-69
2021/04/12 14:50:15;;;;;;;0.10;0.10;;;;;;;;;;5037361;28;20287;-70
2021/04/12 14:52:45;;;;;;;0.10;0.10;;;;;;;;;;5034915;28;20277;-71
2021/04/12 14:55:14;;;;;;;0.10;0.10;;;;;;;;;;5035087;28;20508;-72
2021/04/12 14:57:42;;;;;;;0.10;0.10;;;;;;;;;;5035042;28;20508;-70
2021/04/12 15:00:11;;;;;;;0.10;0.10;;;;;;;;;;5043288;28;20236;-70
2021/04/12 15:02:42;;;;;;;0.10;0.10;;;;;;;;;;5043357;28;20216;-70
2021/04/12 15:05:09;;;;;;;0.10;0.10;;;;;;;;;;5045611;28;20454;-70
2021/04/12 15:07:40;;;;;;;0.10;0.10;;;;;;;;;;5043122;28;20390;-73
2021/04/12 15:10:08;;;;;;;0.10;0.10;;;;;;;;;;5039673;28;20219;-70
2021/04/12 15:12:34;;;;;;;0.10;0.10;;;;;;;;;;5036150;28;20275;-72
2021/04/12 15:15:04;;;;;;;0.20;0.20;;;;;;;;;;5038803;28;20263;-72
2021/04/12 15:17:31;;;;;;;0.10;0.10;;;;;;;;;;5042087;28;20292;-73
2021/04/12 15:19:59;;;;;;;0.10;0.10;;;;;;;;;;5043614;28;20235;-72
2021/04/12 15:22:29;;;;;;;0.10;0.10;;;;;;;;;;5042470;28;20301;-71
2021/04/12 15:25:01;;;;;;;0.10;0.10;;;;;;;;;;5040626;28;20271;-71
2021/04/12 15:27:27;;;;;;;0.10;0.10;;;;;;;;;;5044153;28;20461;-70
2021/04/12 15:29:59;;;;;;;0.10;0.10;;;;;;;;;;5039473;28;20216;-69
2021/04/12 15:32:28;;;;;;;0.10;0.10;;;;;;;;;;5043051;28;20339;-73
2021/04/12 15:34:55;;;;;;;0.10;0.10;;;;;;;;;;5044297;28;20516;-71